Time;durP1;ratioP1;P1;durP2;ratioP2;P2;SDS_P1;SDS_P2;PMS_P1;PMS_P2;Temp;Humidity;BMP_temperature;BMP_pressure;BME280_temperature;BME280_humidity;BME280_pressure;Samples;Min_cycle;Max_cycle;Signal;HPM_P1;HPM_P2
2022/03/23 00:01:23;;;;;;;27.38;16.80;;;12.70;67.90;;;;;;5049664;28;20024;-83
2022/03/23 00:03:49;;;;;;;29.05;17.17;;;12.70;67.80;;;;;;5068165;28;20479;-86
2022/03/23 00:06:17;;;;;;;26.45;17.88;;;12.70;68.10;;;;;;5070607;28;20440;-83
2022/03/23 00:08:44;;;;;;;28.60;17.60;;;12.60;68.20;;;;;;5072424;28;20094;-84
2022/03/23 00:11:09;;;;;;;29.05;18.35;;;12.60;68.40;;;;;;5090129;28;20032;-83
2022/03/23 00:13:36;;;;;;;30.92;17.08;;;12.60;68.30;;;;;;5081378;28;20512;-83
2022/03/23 00:16:03;;;;;;;35.67;17.92;;;12.50;68.40;;;;;;5069003;28;20078;-83
2022/03/23 00:18:29;;;;;;;28.50;16.42;;;12.50;68.70;;;;;;5044765;28;20031;-84
2022/03/23 00:20:54;;;;;;;24.60;16.73;;;12.40;68.30;;;;;;5094588;28;20043;-84
2022/03/23 00:23:20;;;;;;;30.98;18.05;;;12.30;67.90;;;;;;5092550;28;20048;-83
2022/03/23 00:25:46;;;;;;;29.15;16.42;;;12.30;67.70;;;;;;5094814;28;20031;-84
2022/03/23 00:28:11;;;;;;;31.77;17.45;;;12.20;67.80;;;;;;5093936;28;20048;-83
2022/03/23 00:30:37;;;;;;;31.70;16.77;;;12.00;67.90;;;;;;5097681;28;20031;-83
2022/03/23 00:33:03;;;;;;;29.88;17.92;;;11.90;68.60;;;;;;5052211;28;20050;-83
2022/03/23 00:35:30;;;;;;;29.02;18.63;;;11.80;68.80;;;;;;5058759;28;20100;-84
2022/03/23 00:37:58;;;;;;;28.40;17.83;;;11.80;69.40;;;;;;5100418;28;20029;-83
2022/03/23 00:40:24;;;;;;;28.88;17.63;;;11.70;69.50;;;;;;5060240;28;20522;-83
2022/03/23 00:42:50;;;;;;;29.50;18.67;;;11.70;69.80;;;;;;5089109;28;20036;-83
2022/03/23 00:45:17;;;;;;;31.92;18.52;;;11.60;70.00;;;;;;5062894;28;20107;-83
2022/03/23 00:47:44;;;;;;;29.58;17.85;;;11.60;70.60;;;;;;5069271;28;20080;-83
2022/03/23 00:50:10;;;;;;;29.45;17.48;;;11.50;70.40;;;;;;5041043;28;20021;-83
2022/03/23 00:52:37;;;;;;;31.63;18.63;;;11.50;70.80;;;;;;5053385;28;20102;-83
2022/03/23 00:55:04;;;;;;;29.30;18.38;;;11.50;71.10;;;;;;5065050;28;20097;-83
2022/03/23 00:57:30;;;;;;;28.73;17.38;;;11.40;70.90;;;;;;5045799;28;20384;-83
2022/03/23 00:59:55;;;;;;;25.20;17.90;;;11.40;71.40;;;;;;5040553;28;20029;-84
2022/03/23 01:02:21;;;;;;;28.35;16.80;;;11.40;71.60;;;;;;5056406;28;20040;-83
2022/03/23 01:04:47;;;;;;;28.52;17.40;;;11.40;72.00;;;;;;5040193;28;20025;-83
2022/03/23 01:07:12;;;;;;;30.10;16.33;;;11.40;72.30;;;;;;5041341;28;20028;-83
2022/03/23 01:09:38;;;;;;;27.45;16.40;;;11.30;72.30;;;;;;5046299;28;20029;-83
2022/03/23 01:12:04;;;;;;;31.95;17.92;;;11.30;72.40;;;;;;5051012;28;20029;-83
2022/03/23 01:14:30;;;;;;;30.83;17.05;;;11.30;72.50;;;;;;5086839;28;20436;-84
2022/03/23 01:16:56;;;;;;;30.73;16.42;;;11.30;72.50;;;;;;5073354;28;20033;-87
2022/03/23 01:19:25;;;;;;;32.15;16.88;;;11.20;72.40;;;;;;5075971;28;20025;-83
2022/03/23 01:21:54;;;;;;;30.05;16.70;;;11.20;72.50;;;;;;5071351;28;20221;-83
2022/03/23 01:24:20;;;;;;;26.52;16.33;;;11.20;72.40;;;;;;5076610;28;20119;-83
2022/03/23 01:26:46;;;;;;;33.75;15.90;;;11.20;72.30;;;;;;5086365;28;20021;-84
2022/03/23 01:29:13;;;;;;;34.17;17.73;;;11.20;72.30;;;;;;5041821;28;20029;-83
2022/03/23 01:31:38;;;;;;;32.55;16.48;;;11.20;72.40;;;;;;5042036;28;20055;-83
2022/03/23 01:34:04;;;;;;;25.58;15.98;;;11.20;72.40;;;;;;5054742;28;20442;-83
2022/03/23 01:36:31;;;;;;;30.23;16.90;;;11.20;72.30;;;;;;5052536;28;20028;-82
2022/03/23 01:38:58;;;;;;;29.65;16.58;;;11.10;72.30;;;;;;5051406;28;20025;-82
2022/03/23 01:41:24;;;;;;;29.60;16.23;;;11.10;72.40;;;;;;5052251;28;20049;-84
2022/03/23 01:43:50;;;;;;;28.85;15.88;;;11.10;72.50;;;;;;5042716;28;20036;-84
2022/03/23 01:46:17;;;;;;;30.38;16.80;;;11.10;72.50;;;;;;5050147;28;20542;-83
2022/03/23 01:48:44;;;;;;;29.92;16.35;;;11.10;72.40;;;;;;5079523;28;20044;-83
2022/03/23 01:51:12;;;;;;;27.35;16.50;;;11.00;72.40;;;;;;5062279;28;20111;-83
2022/03/23 01:53:38;;;;;;;25.25;15.57;;;11.00;72.20;;;;;;5042203;28;20071;-84
2022/03/23 01:56:05;;;;;;;27.65;16.08;;;10.90;72.30;;;;;;5057698;28;20250;-83
2022/03/23 01:58:31;;;;;;;28.85;16.38;;;10.90;72.70;;;;;;5075174;28;20021;-83
2022/03/23 02:00:57;;;;;;;29.95;16.17;;;10.90;72.90;;;;;;5067836;28;20083;-84
2022/03/23 02:03:23;;;;;;;28.27;15.43;;;10.90;73.10;;;;;;5051036;28;20032;-84
2022/03/23 02:05:48;;;;;;;28.27;15.73;;;10.90;72.80;;;;;;5065292;28;20498;-83
2022/03/23 02:08:15;;;;;;;31.23;16.35;;;10.90;71.60;;;;;;5057108;28;20033;-82
2022/03/23 02:10:44;;;;;;;28.92;15.93;;;10.90;71.50;;;;;;5078845;28;20132;-84
2022/03/23 02:13:11;;;;;;;32.00;16.35;;;10.80;72.10;;;;;;5071907;28;20047;-83
2022/03/23 02:15:37;;;;;;;29.83;16.58;;;10.80;71.90;;;;;;5046899;28;20024;-83
2022/03/23 02:18:04;;;;;;;28.05;15.75;;;10.70;72.20;;;;;;5078205;28;20031;-83
2022/03/23 02:20:30;;;;;;;29.13;15.63;;;10.70;71.90;;;;;;5080128;28;20021;-83
2022/03/23 02:22:56;;;;;;;26.73;16.38;;;10.60;72.00;;;;;;5043094;28;20052;-83
2022/03/23 02:25:25;;;;;;;29.90;16.55;;;10.60;71.90;;;;;;5039240;28;20037;-85
2022/03/23 02:27:52;;;;;;;29.77;16.15;;;10.60;72.10;;;;;;5057192;28;20017;-83
2022/03/23 02:30:18;;;;;;;32.25;16.08;;;10.60;72.60;;;;;;5072810;28;20086;-83
2022/03/23 02:32:45;;;;;;;22.63;15.52;;;10.60;72.30;;;;;;5071732;28;20032;-83
2022/03/23 02:35:11;;;;;;;26.85;16.05;;;10.50;72.80;;;;;;5038353;28;20433;-83
2022/03/23 02:37:41;;;;;;;29.42;15.60;;;10.50;72.60;;;;;;5058467;28;20107;-83
2022/03/23 02:40:11;;;;;;;29.08;16.52;;;10.50;72.70;;;;;;5074534;28;20077;-83
2022/03/23 02:42:37;;;;;;;24.65;16.35;;;10.50;72.80;;;;;;5074929;28;20035;-83
2022/03/23 02:45:07;;;;;;;26.80;15.48;;;10.40;72.90;;;;;;5058037;28;20357;-82
2022/03/23 02:47:32;;;;;;;32.40;16.13;;;10.40;73.00;;;;;;5058512;28;20068;-83
2022/03/23 02:49:58;;;;;;;29.13;16.65;;;10.30;73.10;;;;;;5058291;28;20042;-83
2022/03/23 02:52:24;;;;;;;26.08;16.23;;;10.30;73.40;;;;;;5074603;28;20028;-83
2022/03/23 03:03:30;;;;;;;25.83;15.93;;;10.20;73.90;;;;;;5096350;28;20337;-83
2022/03/23 03:05:56;;;;;;;28.35;16.88;;;10.10;73.70;;;;;;5061750;28;20085;-83
2022/03/23 03:11:05;;;;;;;33.35;17.02;;;10.10;73.80;;;;;;5096578;28;20085;-83
2022/03/23 03:13:31;;;;;;;26.23;16.45;;;10.10;74.10;;;;;;5096310;28;20119;-83
2022/03/23 03:16:04;;;;;;;30.15;17.77;;;10.00;74.40;;;;;;5078490;28;20119;-83
2022/03/23 03:18:31;;;;;;;29.45;16.63;;;10.00;74.30;;;;;;5078136;28;20491;-83
2022/03/23 03:20:58;;;;;;;31.52;17.38;;;10.00;74.40;;;;;;5061762;28;20349;-83
2022/03/23 03:23:23;;;;;;;28.70;17.38;;;9.90;74.50;;;;;;5061668;28;20427;-82
2022/03/23 03:25:49;;;;;;;25.98;17.33;;;10.00;74.60;;;;;;5061325;28;20028;-83
2022/03/23 03:28:15;;;;;;;33.17;17.45;;;9.90;74.50;;;;;;5061162;28;20028;-83
2022/03/23 03:30:41;;;;;;;36.03;18.23;;;9.90;74.60;;;;;;5078098;28;20077;-83
2022/03/23 03:33:06;;;;;;;32.60;17.00;;;9.90;74.70;;;;;;5078067;28;20468;-82
2022/03/23 03:35:32;;;;;;;31.80;17.65;;;9.90;74.90;;;;;;5061116;28;20523;-82
2022/03/23 03:37:58;;;;;;;27.50;17.45;;;9.90;75.00;;;;;;5060965;28;20039;-83
2022/03/23 03:40:24;;;;;;;28.27;17.33;;;9.80;74.90;;;;;;5077591;28;20032;-82
2022/03/23 03:42:50;;;;;;;27.73;16.85;;;9.80;75.10;;;;;;5095833;28;20046;-83
2022/03/23 03:45:15;;;;;;;29.27;17.13;;;9.70;75.00;;;;;;5095712;28;20431;-82
2022/03/23 03:47:41;;;;;;;27.17;17.33;;;9.70;75.10;;;;;;5095888;28;20047;-83
2022/03/23 03:50:07;;;;;;;30.00;17.65;;;9.70;75.20;;;;;;5060699;28;20028;-82
2022/03/23 03:52:33;;;;;;;30.27;16.95;;;9.60;75.30;;;;;;5060796;28;20031;-83
2022/03/23 03:54:58;;;;;;;32.95;17.35;;;9.60;75.50;;;;;;5060844;28;20491;-82
2022/03/23 03:57:24;;;;;;;31.20;17.20;;;9.60;75.80;;;;;;5060813;28;20119;-84
2022/03/23 03:59:49;;;;;;;32.40;17.08;;;9.50;75.70;;;;;;5061117;28;20119;-83
2022/03/23 04:02:15;;;;;;;32.75;17.27;;;9.50;75.70;;;;;;5077775;28;20072;-86
2022/03/23 04:04:41;;;;;;;30.95;17.00;;;9.50;75.80;;;;;;5079774;28;20024;-84
2022/03/23 04:07:06;;;;;;;27.30;16.45;;;9.40;75.90;;;;;;5080808;28;20043;-82
2022/03/23 04:09:32;;;;;;;32.10;17.98;;;9.40;76.10;;;;;;5079282;28;20036;-83
2022/03/23 04:11:58;;;;;;;27.83;17.45;;;9.40;77.00;;;;;;5097202;28;20111;-83
2022/03/23 04:14:23;;;;;;;28.13;17.70;;;9.40;76.50;;;;;;5095444;28;20035;-83
2022/03/23 04:16:49;;;;;;;30.35;17.55;;;9.40;76.60;;;;;;5087969;28;20021;-82
2022/03/23 04:19:15;;;;;;;33.25;18.45;;;9.30;76.50;;;;;;5080941;28;20051;-83
2022/03/23 04:21:40;;;;;;;30.25;17.38;;;9.30;76.60;;;;;;5077444;28;20380;-82
2022/03/23 04:24:06;;;;;;;32.78;17.20;;;9.30;76.60;;;;;;5077137;28;20044;-82
2022/03/23 04:26:32;;;;;;;31.48;18.67;;;9.30;76.80;;;;;;5060257;28;20035;-83
2022/03/23 04:28:57;;;;;;;27.95;17.67;;;9.30;76.80;;;;;;5077070;28;20024;-82
2022/03/23 04:31:23;;;;;;;29.42;18.40;;;9.30;77.00;;;;;;5077089;28;20456;-83
2022/03/23 04:33:49;;;;;;;28.25;17.90;;;9.20;77.00;;;;;;5060189;28;20024;-83
2022/03/23 04:36:14;;;;;;;30.17;17.58;;;9.20;77.20;;;;;;5060162;28;20453;-86
2022/03/23 04:38:40;;;;;;;32.22;18.05;;;9.20;77.20;;;;;;5063597;28;20024;-83
2022/03/23 04:41:06;;;;;;;25.00;16.90;;;9.20;77.20;;;;;;5104274;28;20034;-84
2022/03/23 04:43:34;;;;;;;31.10;17.75;;;9.20;77.20;;;;;;5074159;28;20047;-83
2022/03/23 04:46:00;;;;;;;32.13;18.40;;;9.20;77.20;;;;;;5095831;28;20159;-83
2022/03/23 04:48:25;;;;;;;28.30;17.25;;;9.20;77.50;;;;;;5087455;28;20545;-83
2022/03/23 04:50:52;;;;;;;31.13;18.60;;;9.10;77.50;;;;;;5071923;28;20104;-84
2022/03/23 04:53:17;;;;;;;28.90;16.83;;;9.10;77.30;;;;;;5092651;28;20032;-84
2022/03/23 04:55:43;;;;;;;28.73;17.35;;;9.10;77.50;;;;;;5081792;28;20104;-83
2022/03/23 04:58:09;;;;;;;30.02;18.60;;;9.10;77.70;;;;;;5095016;28;20111;-83
2022/03/23 05:00:37;;;;;;;26.88;17.52;;;9.10;77.80;;;;;;5076401;28;20418;-82
2022/03/23 05:03:04;;;;;;;30.45;18.80;;;9.00;77.70;;;;;;5076547;28;20088;-83
2022/03/23 05:05:30;;;;;;;34.00;17.40;;;9.10;78.10;;;;;;5059428;28;20035;-83
2022/03/23 05:07:56;;;;;;;30.17;19.52;;;9.00;77.40;;;;;;5059533;28;20047;-83
2022/03/23 05:10:22;;;;;;;32.83;19.42;;;9.00;77.40;;;;;;5075640;28;20028;-83
2022/03/23 05:12:48;;;;;;;36.72;18.25;;;9.00;77.50;;;;;;5059615;28;20032;-83
2022/03/23 05:15:14;;;;;;;32.10;18.33;;;9.00;77.60;;;;;;5094218;28;20095;-83
2022/03/23 05:17:41;;;;;;;32.35;18.30;;;9.00;77.50;;;;;;5059203;28;20024;-83
2022/03/23 05:20:09;;;;;;;30.33;18.40;;;9.00;77.50;;;;;;5093265;28;20040;-83
2022/03/23 05:22:37;;;;;;;29.63;18.30;;;9.00;77.30;;;;;;5075344;28;20032;-83
2022/03/23 05:25:06;;;;;;;35.67;17.95;;;8.90;77.50;;;;;;5075563;28;20073;-82
2022/03/23 05:27:33;;;;;;;29.80;18.58;;;8.90;77.30;;;;;;5077150;28;20035;-83
2022/03/23 05:29:59;;;;;;;31.00;18.23;;;8.90;77.60;;;;;;5075862;28;20028;-83
2022/03/23 05:32:25;;;;;;;32.15;17.48;;;8.90;77.70;;;;;;5059038;28;20456;-83
2022/03/23 05:34:51;;;;;;;29.15;18.92;;;8.90;77.90;;;;;;5059094;28;20050;-83
2022/03/23 05:37:17;;;;;;;28.02;17.98;;;8.90;78.00;;;;;;5076216;28;20028;-82
2022/03/23 05:39:44;;;;;;;32.53;19.63;;;8.90;78.10;;;;;;5078341;28;20053;-83
2022/03/23 05:42:10;;;;;;;32.80;18.40;;;8.90;77.90;;;;;;5075675;28;20028;-83
2022/03/23 05:44:36;;;;;;;34.97;18.27;;;8.90;77.90;;;;;;5075457;28;20427;-83
2022/03/23 05:47:02;;;;;;;28.45;18.90;;;8.80;77.80;;;;;;5075512;28;20055;-82
2022/03/23 05:49:28;;;;;;;30.95;19.50;;;8.80;78.00;;;;;;5075362;28;20070;-83
2022/03/23 05:51:54;;;;;;;33.38;18.88;;;8.80;78.00;;;;;;5093452;28;20496;-83
2022/03/23 05:54:20;;;;;;;34.72;18.45;;;8.80;78.00;;;;;;5058829;28;20034;-83
2022/03/23 05:56:46;;;;;;;29.15;18.60;;;8.80;77.80;;;;;;5078987;28;20091;-83
2022/03/23 05:59:12;;;;;;;32.30;17.88;;;8.80;78.00;;;;;;5038603;28;20024;-83
2022/03/23 06:01:38;;;;;;;37.20;19.50;;;8.80;78.50;;;;;;5055338;28;20028;-83
2022/03/23 06:04:03;;;;;;;30.83;19.13;;;8.80;78.90;;;;;;5073475;28;20037;-83
2022/03/23 06:06:29;;;;;;;32.85;18.65;;;8.80;78.80;;;;;;5055368;28;20055;-83
2022/03/23 06:08:55;;;;;;;30.13;18.95;;;8.80;78.90;;;;;;5055146;28;20029;-84
2022/03/23 06:11:21;;;;;;;33.20;19.33;;;8.70;79.20;;;;;;5073098;28;20096;-83
2022/03/23 06:13:47;;;;;;;33.08;19.30;;;8.80;79.40;;;;;;5038292;28;20119;-82
2022/03/23 06:16:13;;;;;;;32.58;19.92;;;8.70;79.20;;;;;;5063410;28;20385;-83
2022/03/23 06:18:40;;;;;;;35.33;21.13;;;8.70;79.30;;;;;;5056758;28;20111;-83
2022/03/23 06:21:06;;;;;;;32.75;19.83;;;8.70;79.60;;;;;;5057934;28;20047;-83
2022/03/23 06:23:31;;;;;;;34.60;21.05;;;8.70;79.70;;;;;;5092803;28;20040;-83
2022/03/23 06:25:57;;;;;;;35.25;21.20;;;8.70;80.00;;;;;;5058401;28;20457;-83
2022/03/23 06:28:23;;;;;;;34.30;19.38;;;8.70;80.00;;;;;;5075291;28;20400;-83
2022/03/23 06:30:53;;;;;;;33.67;20.17;;;8.70;80.10;;;;;;5075388;28;20032;-83
2022/03/23 06:33:19;;;;;;;34.72;19.38;;;8.70;80.30;;;;;;5079002;28;20367;-83
2022/03/23 06:35:46;;;;;;;32.95;20.95;;;8.70;80.40;;;;;;5062363;28;20475;-83
2022/03/23 06:38:12;;;;;;;35.53;20.75;;;8.70;80.40;;;;;;5079087;28;20031;-83
2022/03/23 06:40:38;;;;;;;31.85;20.40;;;8.70;80.60;;;;;;5074721;28;20024;-83
2022/03/23 06:43:04;;;;;;;33.97;20.98;;;8.70;80.70;;;;;;5079432;28;20032;-82
2022/03/23 06:45:29;;;;;;;36.72;20.30;;;8.80;80.90;;;;;;5078308;28;20020;-83
2022/03/23 06:47:56;;;;;;;30.58;19.02;;;8.80;80.90;;;;;;5075495;28;20074;-82
2022/03/23 06:50:22;;;;;;;32.85;20.98;;;8.70;81.20;;;;;;5057195;28;20552;-83
2022/03/23 06:52:47;;;;;;;31.65;20.67;;;8.80;81.10;;;;;;5097422;28;20054;-83
2022/03/23 06:55:13;;;;;;;32.20;19.75;;;8.80;81.30;;;;;;5066039;28;20016;-83
2022/03/23 06:57:39;;;;;;;33.53;20.65;;;8.80;81.30;;;;;;5088872;28;20050;-83
2022/03/23 07:00:13;;;;;;;34.30;20.77;;;8.80;81.40;;;;;;5072068;28;20029;-82
2022/03/23 07:02:43;;;;;;;35.95;20.13;;;8.90;81.40;;;;;;5093415;28;20491;-84
2022/03/23 07:05:09;;;;;;;34.47;19.52;;;8.90;81.20;;;;;;5058384;28;20033;-84
2022/03/23 07:07:36;;;;;;;36.70;19.63;;;8.90;80.90;;;;;;5053664;28;20034;-84
2022/03/23 07:10:03;;;;;;;33.50;20.80;;;9.00;80.60;;;;;;5072571;28;20264;-84
2022/03/23 07:12:29;;;;;;;34.47;19.02;;;9.00;80.30;;;;;;5059216;28;20021;-84
2022/03/23 07:14:55;;;;;;;35.70;19.45;;;9.00;79.90;;;;;;5039009;28;20035;-84
2022/03/23 07:17:21;;;;;;;33.63;18.05;;;9.00;79.70;;;;;;5096300;28;20036;-84
2022/03/23 07:19:47;;;;;;;30.08;19.35;;;9.10;79.50;;;;;;5058617;28;20028;-83
2022/03/23 07:22:15;;;;;;;30.60;19.35;;;9.10;79.00;;;;;;5072164;28;20032;-84
2022/03/23 07:24:42;;;;;;;32.33;18.45;;;9.20;78.90;;;;;;5101715;28;20046;-83
2022/03/23 07:27:08;;;;;;;34.58;17.67;;;9.20;78.80;;;;;;5041949;28;20513;-83
2022/03/23 07:29:35;;;;;;;34.22;19.95;;;9.30;78.60;;;;;;5066720;28;20479;-85
2022/03/23 07:32:00;;;;;;;29.92;19.55;;;9.30;78.50;;;;;;5061563;28;20372;-84
2022/03/23 07:34:26;;;;;;;30.58;19.10;;;9.40;78.50;;;;;;5061278;28;20115;-84
2022/03/23 07:36:52;;;;;;;34.83;19.92;;;9.40;78.40;;;;;;5061400;28;20039;-85
2022/03/23 07:39:21;;;;;;;30.27;18.70;;;9.40;78.20;;;;;;5074899;28;20141;-84
2022/03/23 07:41:50;;;;;;;29.15;17.55;;;9.50;78.20;;;;;;5069465;28;20039;-84
2022/03/23 07:44:18;;;;;;;32.78;19.45;;;9.60;78.10;;;;;;5071052;28;20029;-84
2022/03/23 07:46:47;;;;;;;31.25;18.45;;;9.60;77.90;;;;;;5121525;28;20020;-84
2022/03/23 07:49:14;;;;;;;32.85;18.73;;;9.70;77.50;;;;;;5055928;28;20061;-84
2022/03/23 07:51:41;;;;;;;34.38;18.98;;;9.70;77.60;;;;;;5056086;28;20021;-84
2022/03/23 07:54:07;;;;;;;35.72;19.25;;;9.80;77.70;;;;;;5075800;28;20056;-84
2022/03/23 07:56:34;;;;;;;34.67;21.05;;;9.90;77.60;;;;;;5069447;28;20032;-84
2022/03/23 07:58:59;;;;;;;31.95;20.17;;;9.90;77.70;;;;;;5042580;28;20021;-84
2022/03/23 08:01:25;;;;;;;32.00;20.63;;;10.00;77.90;;;;;;5039976;28;20021;-85
2022/03/23 08:03:51;;;;;;;34.40;20.80;;;10.10;77.60;;;;;;5061637;28;20401;-84
2022/03/23 08:06:17;;;;;;;30.10;19.00;;;10.20;77.50;;;;;;5064617;28;20033;-84
2022/03/23 08:08:42;;;;;;;33.08;20.60;;;10.20;77.00;;;;;;5087192;28;20033;-84
2022/03/23 08:11:08;;;;;;;35.47;20.77;;;10.30;76.90;;;;;;5068233;28;20079;-85
2022/03/23 08:13:34;;;;;;;29.23;18.65;;;10.40;76.50;;;;;;5051320;28;20028;-84
2022/03/23 08:16:01;;;;;;;36.63;21.08;;;10.40;76.30;;;;;;5049597;28;20025;-82
2022/03/23 08:18:27;;;;;;;31.77;20.00;;;10.50;76.00;;;;;;5073232;28;20029;-81
2022/03/23 08:20:53;;;;;;;29.15;18.58;;;10.60;75.60;;;;;;5059140;28;20029;-82
2022/03/23 08:23:19;;;;;;;29.40;19.60;;;10.60;75.30;;;;;;5054179;28;20374;-81
2022/03/23 08:25:45;;;;;;;36.42;19.60;;;10.70;75.40;;;;;;5053014;28;20032;-81
2022/03/23 08:28:14;;;;;;;34.30;20.20;;;10.80;75.00;;;;;;5032986;28;20030;-80
2022/03/23 08:30:41;;;;;;;38.40;21.05;;;10.90;74.60;;;;;;5033362;28;20026;-81
2022/03/23 08:33:07;;;;;;;30.23;19.02;;;10.90;74.20;;;;;;5033383;28;20037;-81
2022/03/23 08:35:34;;;;;;;32.97;19.73;;;11.00;74.40;;;;;;5033609;28;20056;-81
2022/03/23 08:38:00;;;;;;;36.97;21.15;;;11.10;74.00;;;;;;5034602;28;20030;-80
2022/03/23 08:40:26;;;;;;;27.73;19.48;;;11.20;73.80;;;;;;5033631;28;20029;-80
2022/03/23 08:42:52;;;;;;;33.17;20.55;;;11.20;73.60;;;;;;5034057;28;20482;-84
2022/03/23 08:45:18;;;;;;;30.67;19.98;;;11.30;74.30;;;;;;5034818;28;20052;-83
2022/03/23 08:47:44;;;;;;;28.30;18.92;;;11.40;74.40;;;;;;5021553;28;20076;-83
2022/03/23 08:50:12;;;;;;;37.70;20.80;;;11.50;74.30;;;;;;5054380;28;20033;-83
2022/03/23 08:52:39;;;;;;;28.55;19.35;;;11.60;74.30;;;;;;5053257;28;20063;-79
2022/03/23 08:55:07;;;;;;;35.17;20.35;;;11.70;74.00;;;;;;5069306;28;20029;-80
2022/03/23 08:57:33;;;;;;;33.17;19.70;;;11.80;74.50;;;;;;5054208;28;20025;-81
2022/03/23 08:59:59;;;;;;;34.88;20.80;;;11.90;74.40;;;;;;5052764;28;20422;-82
2022/03/23 09:02:25;;;;;;;33.33;19.67;;;12.00;74.20;;;;;;5052892;28;20429;-82
2022/03/23 09:04:51;;;;;;;31.98;19.20;;;12.10;74.30;;;;;;5036110;28;20029;-82
2022/03/23 09:07:17;;;;;;;29.27;19.23;;;12.20;74.00;;;;;;5036238;28;20040;-82
2022/03/23 09:09:42;;;;;;;34.45;18.63;;;12.30;73.80;;;;;;5036180;28;20068;-84
2022/03/23 09:12:09;;;;;;;31.92;18.17;;;12.50;73.60;;;;;;5052808;28;20032;-82
2022/03/23 09:14:35;;;;;;;26.70;19.77;;;12.60;74.10;;;;;;5052652;28;20033;-83
2022/03/23 09:17:02;;;;;;;30.10;19.77;;;12.70;73.60;;;;;;5051971;28;20037;-87
2022/03/23 09:19:27;;;;;;;29.25;20.33;;;12.80;73.70;;;;;;5039282;28;20040;-82
2022/03/23 09:21:54;;;;;;;27.75;19.00;;;12.90;73.80;;;;;;5055972;28;20029;-85
2022/03/23 09:24:19;;;;;;;28.17;18.85;;;13.10;73.80;;;;;;5072450;28;20043;-82
2022/03/23 09:26:46;;;;;;;30.88;21.23;;;13.20;73.80;;;;;;5073372;28;20029;-83
2022/03/23 09:29:12;;;;;;;27.58;19.30;;;13.30;73.10;;;;;;5072488;28;20350;-82
2022/03/23 09:31:39;;;;;;;28.10;19.17;;;13.40;72.70;;;;;;5072290;28;20447;-82
2022/03/23 09:34:06;;;;;;;31.75;20.90;;;13.60;72.90;;;;;;5071996;28;20028;-82
2022/03/23 09:39:17;;;;;;;33.65;20.77;;;13.80;71.80;;;;;;5072813;28;20112;-82
2022/03/23 09:41:45;;;;;;;30.67;20.75;;;13.90;71.10;;;;;;5072189;28;20060;-82
2022/03/23 09:44:11;;;;;;;28.17;20.10;;;14.10;71.30;;;;;;5073044;28;20028;-82
2022/03/23 09:46:38;;;;;;;28.52;19.65;;;14.20;71.70;;;;;;5073532;28;20016;-82
2022/03/23 09:49:07;;;;;;;30.42;19.60;;;14.30;70.20;;;;;;5089041;28;20541;-83
2022/03/23 09:51:35;;;;;;;29.88;18.88;;;14.50;68.00;;;;;;5059118;28;20028;-82
2022/03/23 09:54:02;;;;;;;30.65;20.80;;;14.50;66.80;;;;;;5058286;28;20114;-82
2022/03/23 09:56:27;;;;;;;29.00;19.75;;;14.70;65.00;;;;;;5058595;28;20028;-82
2022/03/23 09:58:53;;;;;;;30.75;19.17;;;14.70;64.60;;;;;;5074872;28;20035;-83
2022/03/23 10:01:28;;;;;;;28.90;18.85;;;14.90;64.90;;;;;;5075380;28;20051;-82
2022/03/23 10:04:20;;;;;;;30.95;19.40;;;15.00;65.50;;;;;;5075297;28;20028;-82
2022/03/23 10:06:51;;;;;;;33.38;19.48;;;15.20;65.40;;;;;;5054731;28;20458;-82
2022/03/23 10:09:26;;;;;;;28.08;20.90;;;15.30;65.90;;;;;;5075443;28;20457;-82
2022/03/23 10:12:43;;;;;;;32.90;20.90;;;15.40;64.70;;;;;;5093214;28;20043;-83
2022/03/23 10:15:45;;;;;;;29.50;20.27;;;15.50;63.70;;;;;;5093114;28;20417;-82
2022/03/23 10:18:52;;;;;;;31.92;20.42;;;15.70;64.20;;;;;;5074748;28;20024;-85
2022/03/23 10:21:27;;;;;;;34.55;20.83;;;15.80;63.50;;;;;;5075169;28;20073;-82
2022/03/23 10:24:02;;;;;;;28.08;20.63;;;16.00;63.40;;;;;;5075314;28;20046;-83
2022/03/23 10:26:29;;;;;;;32.22;21.92;;;16.10;63.10;;;;;;5075334;28;20028;-83
2022/03/23 10:28:56;;;;;;;31.60;21.23;;;16.20;62.70;;;;;;5075002;28;20029;-83
2022/03/23 10:31:24;;;;;;;34.80;20.88;;;16.30;62.10;;;;;;5075367;28;20027;-83
2022/03/23 10:34:08;;;;;;;32.55;21.23;;;16.40;60.50;;;;;;5093297;28;20058;-83
2022/03/23 10:36:55;;;;;;;33.15;22.27;;;16.60;59.30;;;;;;5097689;28;20103;-83
2022/03/23 10:39:27;;;;;;;33.22;21.98;;;16.70;56.70;;;;;;5095367;28;20468;-82
2022/03/23 10:42:15;;;;;;;35.85;21.67;;;16.80;57.50;;;;;;5095208;28;20027;-82
2022/03/23 10:44:42;;;;;;;31.88;21.27;;;16.90;55.70;;;;;;5113465;28;20135;-82
2022/03/23 10:47:19;;;;;;;30.92;21.95;;;17.10;55.40;;;;;;5113160;28;20051;-82
2022/03/23 10:49:45;;;;;;;31.35;22.20;;;17.20;55.30;;;;;;5095108;28;20119;-83
2022/03/23 10:52:15;;;;;;;31.35;21.48;;;17.30;54.70;;;;;;5113208;28;20059;-82
2022/03/23 10:55:01;;;;;;;35.63;22.05;;;17.40;54.50;;;;;;5113241;28;20024;-83
2022/03/23 10:58:01;;;;;;;28.77;21.33;;;17.50;55.20;;;;;;5097790;28;20040;-82
2022/03/23 11:00:35;;;;;;;30.88;21.75;;;17.70;56.10;;;;;;5095373;28;20112;-83
2022/03/23 11:03:02;;;;;;;30.98;21.92;;;17.80;54.00;;;;;;5094776;28;20488;-82
2022/03/23 11:05:33;;;;;;;27.63;20.65;;;17.90;53.60;;;;;;5113155;28;20020;-82
2022/03/23 11:08:13;;;;;;;32.40;22.23;;;18.00;53.60;;;;;;5094868;28;20379;-83
2022/03/23 11:16:23;;;;;;;30.67;22.35;;;18.40;53.10;;;;;;5097968;28;20050;-80
2022/03/23 11:18:48;;;;;;;28.38;21.20;;;18.50;52.60;;;;;;5114294;28;20020;-79
2022/03/23 11:21:14;;;;;;;34.15;22.48;;;18.60;52.20;;;;;;5116599;28;20570;-80
2022/03/23 11:23:40;;;;;;;31.17;21.63;;;18.70;52.10;;;;;;5081533;28;20044;-75
2022/03/23 11:26:10;;;;;;;28.95;21.40;;;18.80;51.70;;;;;;5117009;28;20055;-76
2022/03/23 11:28:41;;;;;;;30.75;22.90;;;18.90;52.60;;;;;;5117242;28;20120;-76
2022/03/23 11:31:09;;;;;;;29.17;22.10;;;19.00;53.40;;;;;;5103852;28;20028;-78
2022/03/23 11:33:36;;;;;;;30.58;20.98;;;19.10;53.90;;;;;;5103886;28;20086;-75
2022/03/23 11:36:04;;;;;;;31.90;23.25;;;19.30;54.00;;;;;;5123333;28;20026;-82
2022/03/23 11:38:33;;;;;;;29.17;20.75;;;19.40;52.80;;;;;;5124760;28;20028;-81
2022/03/23 11:40:59;;;;;;;26.90;21.20;;;19.50;52.10;;;;;;5135941;28;20015;-81
2022/03/23 11:43:27;;;;;;;29.38;21.83;;;19.60;51.90;;;;;;5118645;28;20036;-81
2022/03/23 11:45:54;;;;;;;30.40;22.70;;;19.70;51.30;;;;;;5101404;28;20031;-88
2022/03/23 11:48:23;;;;;;;28.55;21.13;;;19.80;50.70;;;;;;5135873;28;20046;-81
2022/03/23 11:51:32;;;;;;;46.05;22.60;;;19.90;51.60;;;;;;5103694;28;20019;-82
2022/03/23 11:55:36;;;;;;;31.30;22.80;;;20.00;51.00;;;;;;5033510;28;20381;-82
2022/03/23 11:57:14;;;;;;;30.33;22.95;;;20.20;50.80;;;;;;5115654;28;20032;-82
2022/03/23 11:59:43;;;;;;;33.50;23.45;;;20.20;51.00;;;;;;5080827;28;20118;-82
2022/03/23 12:02:09;;;;;;;28.45;22.67;;;20.40;50.40;;;;;;5097988;28;20349;-81
2022/03/23 12:04:35;;;;;;;33.88;24.73;;;20.50;50.50;;;;;;5080575;28;20131;-82
2022/03/23 12:07:04;;;;;;;31.20;22.52;;;20.50;50.30;;;;;;5115208;28;20095;-82
2022/03/23 12:09:38;;;;;;;29.40;22.75;;;20.70;51.20;;;;;;5115407;28;20020;-82
2022/03/23 12:12:16;;;;;;;27.40;20.60;;;20.80;50.50;;;;;;5081183;28;20030;-83
2022/03/23 12:14:42;;;;;;;29.63;20.05;;;20.90;50.20;;;;;;5097589;28;20125;-82
2022/03/23 12:17:16;;;;;;;32.13;19.88;;;21.00;49.50;;;;;;5063183;28;20041;-83
2022/03/23 12:19:53;;;;;;;32.72;21.98;;;21.10;49.10;;;;;;5090632;28;20082;-82
2022/03/23 12:22:46;;;;;;;30.33;20.13;;;21.20;48.60;;;;;;5075052;28;20020;-82
2022/03/23 12:25:23;;;;;;;25.67;18.48;;;21.30;49.10;;;;;;5025560;28;20102;-82
2022/03/23 12:27:54;;;;;;;26.35;17.80;;;21.40;46.90;;;;;;5074954;28;20020;-83
2022/03/23 12:30:26;;;;;;;31.35;20.00;;;21.50;46.30;;;;;;5077625;28;20024;-82
2022/03/23 12:32:54;;;;;;;29.73;20.25;;;21.50;45.90;;;;;;5074637;28;20095;-83
2022/03/23 12:35:36;;;;;;;26.60;20.35;;;21.60;45.60;;;;;;5056916;28;20038;-82
2022/03/23 12:38:04;;;;;;;26.60;19.70;;;21.60;44.80;;;;;;5056922;28;20040;-82
2022/03/23 12:40:41;;;;;;;26.35;17.45;;;21.60;44.10;;;;;;5076656;28;20089;-84
2022/03/23 12:43:07;;;;;;;29.48;19.83;;;21.70;45.10;;;;;;5057198;28;20040;-82
2022/03/23 12:45:39;;;;;;;34.40;21.05;;;21.80;43.20;;;;;;5056541;28;20033;-82
2022/03/23 12:57:49;;;;;;;28.08;19.67;;;21.80;43.70;;;;;;5040162;28;20049;-82
2022/03/23 12:59:17;;;;;;;28.75;18.55;;;22.20;44.80;;;;;;5078574;28;20058;-82
2022/03/23 13:01:44;;;;;;;26.67;19.70;;;22.20;42.50;;;;;;5094370;28;20074;-82
2022/03/23 13:04:40;;;;;;;31.10;20.95;;;22.30;41.70;;;;;;5075934;28;20434;-81